sensor_id;sensor_type;location;lat;lon;timestamp;P1;durP1;ratioP1;P2;durP2;ratioP2
76107;SDS011;64834;52.516;10.528;2023-04-28T00:02:12;4.05;;;1.77;;
76107;SDS011;64834;52.516;10.528;2023-04-28T00:04:38;4.80;;;2.17;;
76107;SDS011;64834;52.516;10.528;2023-04-28T00:07:03;5.20;;;1.60;;
76107;SDS011;64834;52.516;10.528;2023-04-28T00:09:28;5.40;;;2.05;;
76107;SDS011;64834;52.516;10.528;2023-04-28T00:11:53;4.63;;;1.60;;
76107;SDS011;64834;52.516;10.528;2023-04-28T00:14:19;3.50;;;1.73;;
76107;SDS011;64834;52.516;10.528;2023-04-28T00:16:44;4.68;;;1.80;;
76107;SDS011;64834;52.516;10.528;2023-04-28T00:19:09;5.72;;;1.55;;
76107;SDS011;64834;52.516;10.528;2023-04-28T00:21:35;3.35;;;1.75;;
76107;SDS011;64834;52.516;10.528;2023-04-28T00:24:00;4.38;;;1.80;;
76107;SDS011;64834;52.516;10.528;2023-04-28T00:26:26;3.88;;;1.60;;
76107;SDS011;64834;52.516;10.528;2023-04-28T00:28:51;4.28;;;1.60;;
76107;SDS011;64834;52.516;10.528;2023-04-28T00:31:16;2.15;;;1.48;;
76107;SDS011;64834;52.516;10.528;2023-04-28T00:33:42;3.58;;;1.70;;
76107;SDS011;64834;52.516;10.528;2023-04-28T00:36:08;4.03;;;1.58;;
76107;SDS011;64834;52.516;10.528;2023-04-28T00:38:35;4.03;;;1.98;;
76107;SDS011;64834;52.516;10.528;2023-04-28T00:41:00;3.33;;;1.60;;
76107;SDS011;64834;52.516;10.528;2023-04-28T00:43:26;4.22;;;1.58;;
76107;SDS011;64834;52.516;10.528;2023-04-28T00:45:51;5.40;;;1.75;;
76107;SDS011;64834;52.516;10.528;2023-04-28T00:48:17;6.40;;;1.83;;
76107;SDS011;64834;52.516;10.528;2023-04-28T00:50:43;3.78;;;1.85;;
76107;SDS011;64834;52.516;10.528;2023-04-28T00:53:10;4.22;;;2.00;;
76107;SDS011;64834;52.516;10.528;2023-04-28T00:55:36;6.13;;;1.90;;
76107;SDS011;64834;52.516;10.528;2023-04-28T00:58:02;5.07;;;2.17;;
76107;SDS011;64834;52.516;10.528;2023-04-28T01:00:29;3.13;;;1.67;;
76107;SDS011;64834;52.516;10.528;2023-04-28T01:02:54;3.47;;;1.90;;
76107;SDS011;64834;52.516;10.528;2023-04-28T01:05:21;4.35;;;2.15;;
76107;SDS011;64834;52.516;10.528;2023-04-28T01:07:49;4.00;;;1.98;;
76107;SDS011;64834;52.516;10.528;2023-04-28T01:10:14;6.85;;;2.00;;
76107;SDS011;64834;52.516;10.528;2023-04-28T01:12:39;4.60;;;1.92;;
76107;SDS011;64834;52.516;10.528;2023-04-28T01:15:05;4.43;;;2.00;;
76107;SDS011;64834;52.516;10.528;2023-04-28T01:17:34;3.22;;;1.80;;
76107;SDS011;64834;52.516;10.528;2023-04-28T01:19:59;3.65;;;1.90;;
76107;SDS011;64834;52.516;10.528;2023-04-28T01:22:25;4.20;;;2.10;;
76107;SDS011;64834;52.516;10.528;2023-04-28T01:24:50;4.20;;;1.83;;
76107;SDS011;64834;52.516;10.528;2023-04-28T01:27:15;5.78;;;1.92;;
76107;SDS011;64834;52.516;10.528;2023-04-28T01:29:41;4.53;;;1.80;;
76107;SDS011;64834;52.516;10.528;2023-04-28T01:32:06;4.85;;;2.05;;
76107;SDS011;64834;52.516;10.528;2023-04-28T01:34:31;4.45;;;1.77;;
76107;SDS011;64834;52.516;10.528;2023-04-28T01:36:57;4.30;;;1.67;;
76107;SDS011;64834;52.516;10.528;2023-04-28T01:39:22;5.82;;;1.92;;
76107;SDS011;64834;52.516;10.528;2023-04-28T01:41:47;5.40;;;2.22;;
76107;SDS011;64834;52.516;10.528;2023-04-28T01:44:13;8.95;;;2.25;;
76107;SDS011;64834;52.516;10.528;2023-04-28T01:46:38;4.78;;;2.38;;
76107;SDS011;64834;52.516;10.528;2023-04-28T01:49:03;2.70;;;1.63;;
76107;SDS011;64834;52.516;10.528;2023-04-28T01:51:29;3.85;;;1.70;;
76107;SDS011;64834;52.516;10.528;2023-04-28T01:53:55;5.57;;;2.20;;
76107;SDS011;64834;52.516;10.528;2023-04-28T01:56:20;3.60;;;1.98;;
76107;SDS011;64834;52.516;10.528;2023-04-28T01:58:46;4.15;;;1.90;;
76107;SDS011;64834;52.516;10.528;2023-04-28T02:01:11;3.40;;;1.75;;
76107;SDS011;64834;52.516;10.528;2023-04-28T02:03:36;4.82;;;1.95;;
76107;SDS011;64834;52.516;10.528;2023-04-28T02:06:02;4.90;;;1.75;;
76107;SDS011;64834;52.516;10.528;2023-04-28T02:08:28;6.03;;;2.05;;
76107;SDS011;64834;52.516;10.528;2023-04-28T02:10:53;6.10;;;1.73;;
76107;SDS011;64834;52.516;10.528;2023-04-28T02:13:18;6.40;;;2.13;;
76107;SDS011;64834;52.516;10.528;2023-04-28T02:15:43;3.90;;;2.08;;
76107;SDS011;64834;52.516;10.528;2023-04-28T02:18:09;6.13;;;1.77;;
76107;SDS011;64834;52.516;10.528;2023-04-28T02:20:34;4.78;;;1.75;;
76107;SDS011;64834;52.516;10.528;2023-04-28T02:23:00;6.38;;;2.40;;
76107;SDS011;64834;52.516;10.528;2023-04-28T02:25:25;3.10;;;1.55;;
76107;SDS011;64834;52.516;10.528;2023-04-28T02:27:51;4.88;;;1.95;;
76107;SDS011;64834;52.516;10.528;2023-04-28T02:30:16;6.28;;;2.13;;
76107;SDS011;64834;52.516;10.528;2023-04-28T02:32:41;5.50;;;1.85;;
76107;SDS011;64834;52.516;10.528;2023-04-28T02:35:07;5.20;;;1.80;;
76107;SDS011;64834;52.516;10.528;2023-04-28T02:37:32;4.85;;;2.00;;
76107;SDS011;64834;52.516;10.528;2023-04-28T02:39:57;3.00;;;2.00;;
76107;SDS011;64834;52.516;10.528;2023-04-28T02:42:23;5.65;;;2.08;;
76107;SDS011;64834;52.516;10.528;2023-04-28T02:44:48;4.93;;;2.00;;
76107;SDS011;64834;52.516;10.528;2023-04-28T02:47:13;5.07;;;1.90;;
76107;SDS011;64834;52.516;10.528;2023-04-28T02:49:39;4.78;;;1.88;;
76107;SDS011;64834;52.516;10.528;2023-04-28T02:52:04;4.60;;;1.88;;
76107;SDS011;64834;52.516;10.528;2023-04-28T02:54:29;4.95;;;2.05;;
76107;SDS011;64834;52.516;10.528;2023-04-28T02:56:55;5.88;;;1.83;;
76107;SDS011;64834;52.516;10.528;2023-04-28T02:59:22;3.90;;;1.63;;
76107;SDS011;64834;52.516;10.528;2023-04-28T03:01:47;4.70;;;2.05;;
76107;SDS011;64834;52.516;10.528;2023-04-28T03:04:13;5.90;;;2.20;;
76107;SDS011;64834;52.516;10.528;2023-04-28T03:06:39;7.50;;;2.53;;
76107;SDS011;64834;52.516;10.528;2023-04-28T03:09:05;4.65;;;1.98;;
76107;SDS011;64834;52.516;10.528;2023-04-28T03:11:31;4.65;;;2.22;;
76107;SDS011;64834;52.516;10.528;2023-04-28T03:13:56;6.00;;;2.53;;
76107;SDS011;64834;52.516;10.528;2023-04-28T03:16:21;4.63;;;2.20;;
76107;SDS011;64834;52.516;10.528;2023-04-28T03:18:47;5.25;;;2.10;;
76107;SDS011;64834;52.516;10.528;2023-04-28T03:21:12;4.60;;;1.80;;
76107;SDS011;64834;52.516;10.528;2023-04-28T03:23:37;4.80;;;2.10;;
76107;SDS011;64834;52.516;10.528;2023-04-28T03:26:03;5.35;;;2.42;;
76107;SDS011;64834;52.516;10.528;2023-04-28T03:28:28;4.18;;;2.00;;
76107;SDS011;64834;52.516;10.528;2023-04-28T03:30:54;4.53;;;2.20;;
76107;SDS011;64834;52.516;10.528;2023-04-28T03:33:19;4.22;;;2.03;;
76107;SDS011;64834;52.516;10.528;2023-04-28T03:35:44;7.22;;;2.17;;
76107;SDS011;64834;52.516;10.528;2023-04-28T03:38:10;5.65;;;1.85;;
76107;SDS011;64834;52.516;10.528;2023-04-28T03:40:35;5.18;;;2.40;;
76107;SDS011;64834;52.516;10.528;2023-04-28T03:43:01;8.30;;;2.42;;
76107;SDS011;64834;52.516;10.528;2023-04-28T03:45:26;5.30;;;2.05;;
76107;SDS011;64834;52.516;10.528;2023-04-28T03:47:51;4.15;;;1.98;;
76107;SDS011;64834;52.516;10.528;2023-04-28T03:50:17;4.95;;;2.47;;
76107;SDS011;64834;52.516;10.528;2023-04-28T03:52:42;7.40;;;2.50;;
76107;SDS011;64834;52.516;10.528;2023-04-28T03:55:08;5.28;;;2.15;;
76107;SDS011;64834;52.516;10.528;2023-04-28T03:57:33;5.80;;;2.05;;
76107;SDS011;64834;52.516;10.528;2023-04-28T03:59:59;6.80;;;3.15;;
76107;SDS011;64834;52.516;10.528;2023-04-28T04:02:24;5.18;;;2.30;;
76107;SDS011;64834;52.516;10.528;2023-04-28T04:04:49;5.68;;;2.47;;
76107;SDS011;64834;52.516;10.528;2023-04-28T04:07:15;6.38;;;3.00;;
76107;SDS011;64834;52.516;10.528;2023-04-28T04:09:40;5.90;;;3.03;;
76107;SDS011;64834;52.516;10.528;2023-04-28T04:12:06;8.40;;;2.90;;
76107;SDS011;64834;52.516;10.528;2023-04-28T04:14:31;7.47;;;2.60;;
76107;SDS011;64834;52.516;10.528;2023-04-28T04:16:57;7.05;;;2.63;;
76107;SDS011;64834;52.516;10.528;2023-04-28T04:19:22;11.45;;;4.45;;
76107;SDS011;64834;52.516;10.528;2023-04-28T04:21:50;14.30;;;6.45;;
76107;SDS011;64834;52.516;10.528;2023-04-28T04:24:15;10.75;;;4.70;;
76107;SDS011;64834;52.516;10.528;2023-04-28T04:26:41;8.00;;;3.47;;
76107;SDS011;64834;52.516;10.528;2023-04-28T04:29:06;6.57;;;2.85;;
76107;SDS011;64834;52.516;10.528;2023-04-28T04:31:31;7.55;;;2.53;;
76107;SDS011;64834;52.516;10.528;2023-04-28T04:33:57;5.97;;;2.97;;
76107;SDS011;64834;52.516;10.528;2023-04-28T04:36:22;8.27;;;3.80;;
76107;SDS011;64834;52.516;10.528;2023-04-28T04:38:47;8.60;;;4.28;;
76107;SDS011;64834;52.516;10.528;2023-04-28T04:41:13;10.05;;;4.50;;
76107;SDS011;64834;52.516;10.528;2023-04-28T04:43:38;6.97;;;3.20;;
76107;SDS011;64834;52.516;10.528;2023-04-28T04:46:03;6.75;;;3.30;;
76107;SDS011;64834;52.516;10.528;2023-04-28T04:48:29;5.95;;;3.00;;
76107;SDS011;64834;52.516;10.528;2023-04-28T04:50:54;6.45;;;3.10;;
76107;SDS011;64834;52.516;10.528;2023-04-28T04:53:19;7.32;;;2.88;;
76107;SDS011;64834;52.516;10.528;2023-04-28T04:55:44;6.60;;;3.03;;
76107;SDS011;64834;52.516;10.528;2023-04-28T04:58:10;6.25;;;3.40;;
76107;SDS011;64834;52.516;10.528;2023-04-28T05:00:35;7.43;;;3.13;;
76107;SDS011;64834;52.516;10.528;2023-04-28T05:03:01;4.85;;;2.80;;
76107;SDS011;64834;52.516;10.528;2023-04-28T05:05:28;6.28;;;2.83;;
76107;SDS011;64834;52.516;10.528;2023-04-28T05:07:53;7.05;;;2.90;;
76107;SDS011;64834;52.516;10.528;2023-04-28T05:10:18;8.00;;;2.85;;
76107;SDS011;64834;52.516;10.528;2023-04-28T05:12:44;7.07;;;3.10;;
76107;SDS011;64834;52.516;10.528;2023-04-28T05:15:09;5.70;;;3.00;;
76107;SDS011;64834;52.516;10.528;2023-04-28T05:17:34;6.55;;;2.70;;
76107;SDS011;64834;52.516;10.528;2023-04-28T05:20:00;9.63;;;2.85;;
76107;SDS011;64834;52.516;10.528;2023-04-28T05:22:25;7.05;;;2.97;;
76107;SDS011;64834;52.516;10.528;2023-04-28T05:24:51;7.75;;;3.25;;
76107;SDS011;64834;52.516;10.528;2023-04-28T05:27:17;7.20;;;3.05;;
76107;SDS011;64834;52.516;10.528;2023-04-28T05:29:42;6.95;;;3.30;;
76107;SDS011;64834;52.516;10.528;2023-04-28T05:32:08;6.85;;;3.28;;
76107;SDS011;64834;52.516;10.528;2023-04-28T05:34:33;4.68;;;3.00;;
76107;SDS011;64834;52.516;10.528;2023-04-28T05:36:58;6.10;;;3.15;;
76107;SDS011;64834;52.516;10.528;2023-04-28T05:39:24;6.57;;;2.92;;
76107;SDS011;64834;52.516;10.528;2023-04-28T05:41:50;5.28;;;2.70;;
76107;SDS011;64834;52.516;10.528;2023-04-28T05:44:15;6.35;;;2.83;;
76107;SDS011;64834;52.516;10.528;2023-04-28T05:46:40;4.53;;;2.75;;
76107;SDS011;64834;52.516;10.528;2023-04-28T05:49:06;7.82;;;2.92;;
76107;SDS011;64834;52.516;10.528;2023-04-28T05:51:31;6.78;;;2.97;;
76107;SDS011;64834;52.516;10.528;2023-04-28T05:53:57;7.60;;;2.90;;
76107;SDS011;64834;52.516;10.528;2023-04-28T05:56:23;5.88;;;3.38;;
76107;SDS011;64834;52.516;10.528;2023-04-28T05:58:48;5.72;;;2.78;;
76107;SDS011;64834;52.516;10.528;2023-04-28T06:01:14;6.40;;;3.28;;
76107;SDS011;64834;52.516;10.528;2023-04-28T06:03:40;5.70;;;3.03;;
76107;SDS011;64834;52.516;10.528;2023-04-28T06:06:06;5.35;;;2.90;;
76107;SDS011;64834;52.516;10.528;2023-04-28T06:08:32;7.25;;;3.00;;
76107;SDS011;64834;52.516;10.528;2023-04-28T06:10:57;5.82;;;2.80;;
76107;SDS011;64834;52.516;10.528;2023-04-28T06:13:22;7.28;;;3.30;;
76107;SDS011;64834;52.516;10.528;2023-04-28T06:15:48;6.82;;;2.97;;
76107;SDS011;64834;52.516;10.528;2023-04-28T06:18:13;9.25;;;3.30;;
76107;SDS011;64834;52.516;10.528;2023-04-28T06:20:40;6.28;;;2.92;;
76107;SDS011;64834;52.516;10.528;2023-04-28T06:23:06;7.20;;;3.50;;
76107;SDS011;64834;52.516;10.528;2023-04-28T06:25:31;12.15;;;3.55;;
76107;SDS011;64834;52.516;10.528;2023-04-28T06:27:56;7.53;;;3.28;;
76107;SDS011;64834;52.516;10.528;2023-04-28T06:30:22;6.53;;;3.50;;
76107;SDS011;64834;52.516;10.528;2023-04-28T06:32:48;6.32;;;3.25;;
76107;SDS011;64834;52.516;10.528;2023-04-28T06:35:14;8.00;;;3.28;;
76107;SDS011;64834;52.516;10.528;2023-04-28T06:37:40;6.82;;;3.80;;
76107;SDS011;64834;52.516;10.528;2023-04-28T06:40:06;8.13;;;3.53;;
76107;SDS011;64834;52.516;10.528;2023-04-28T06:42:31;8.68;;;3.38;;
76107;SDS011;64834;52.516;10.528;2023-04-28T06:44:57;4.53;;;2.60;;
76107;SDS011;64834;52.516;10.528;2023-04-28T06:47:22;6.75;;;3.30;;
76107;SDS011;64834;52.516;10.528;2023-04-28T06:49:47;7.03;;;3.58;;
76107;SDS011;64834;52.516;10.528;2023-04-28T06:52:14;6.85;;;4.00;;
76107;SDS011;64834;52.516;10.528;2023-04-28T06:54:40;9.93;;;3.95;;
76107;SDS011;64834;52.516;10.528;2023-04-28T06:57:31;7.10;;;3.40;;
76107;SDS011;64834;52.516;10.528;2023-04-28T06:59:56;8.50;;;3.97;;
76107;SDS011;64834;52.516;10.528;2023-04-28T07:02:21;7.55;;;4.22;;
76107;SDS011;64834;52.516;10.528;2023-04-28T07:04:47;6.90;;;3.65;;
76107;SDS011;64834;52.516;10.528;2023-04-28T07:07:13;6.65;;;3.83;;
76107;SDS011;64834;52.516;10.528;2023-04-28T07:09:38;7.50;;;3.92;;
76107;SDS011;64834;52.516;10.528;2023-04-28T07:12:04;7.90;;;4.13;;
76107;SDS011;64834;52.516;10.528;2023-04-28T07:14:29;8.15;;;4.30;;
76107;SDS011;64834;52.516;10.528;2023-04-28T07:16:54;10.05;;;4.53;;
76107;SDS011;64834;52.516;10.528;2023-04-28T07:19:20;11.43;;;4.32;;
76107;SDS011;64834;52.516;10.528;2023-04-28T07:21:45;8.38;;;3.67;;
76107;SDS011;64834;52.516;10.528;2023-04-28T07:24:10;7.72;;;4.32;;
76107;SDS011;64834;52.516;10.528;2023-04-28T07:26:36;8.85;;;4.28;;
76107;SDS011;64834;52.516;10.528;2023-04-28T07:29:01;8.77;;;4.40;;
76107;SDS011;64834;52.516;10.528;2023-04-28T07:31:26;8.38;;;4.03;;
76107;SDS011;64834;52.516;10.528;2023-04-28T07:33:52;7.20;;;4.57;;
76107;SDS011;64834;52.516;10.528;2023-04-28T07:36:18;10.35;;;4.18;;
76107;SDS011;64834;52.516;10.528;2023-04-28T07:38:43;9.52;;;4.10;;
76107;SDS011;64834;52.516;10.528;2023-04-28T07:41:08;7.80;;;4.60;;
76107;SDS011;64834;52.516;10.528;2023-04-28T07:43:34;9.95;;;4.75;;
76107;SDS011;64834;52.516;10.528;2023-04-28T07:45:59;10.15;;;4.43;;
76107;SDS011;64834;52.516;10.528;2023-04-28T07:48:25;8.20;;;4.45;;
76107;SDS011;64834;52.516;10.528;2023-04-28T07:50:51;10.40;;;4.70;;
76107;SDS011;64834;52.516;10.528;2023-04-28T07:53:17;10.82;;;4.78;;
76107;SDS011;64834;52.516;10.528;2023-04-28T07:55:42;9.45;;;5.18;;
76107;SDS011;64834;52.516;10.528;2023-04-28T07:58:08;7.40;;;4.75;;
76107;SDS011;64834;52.516;10.528;2023-04-28T08:00:34;9.52;;;4.78;;
76107;SDS011;64834;52.516;10.528;2023-04-28T08:02:59;10.35;;;5.43;;
76107;SDS011;64834;52.516;10.528;2023-04-28T08:05:25;9.25;;;5.18;;
76107;SDS011;64834;52.516;10.528;2023-04-28T08:07:50;10.73;;;5.60;;
76107;SDS011;64834;52.516;10.528;2023-04-28T08:10:15;10.82;;;5.13;;
76107;SDS011;64834;52.516;10.528;2023-04-28T08:12:41;7.32;;;4.30;;
76107;SDS011;64834;52.516;10.528;2023-04-28T08:15:07;10.85;;;5.47;;
76107;SDS011;64834;52.516;10.528;2023-04-28T08:19:59;7.47;;;3.70;;
76107;SDS011;64834;52.516;10.528;2023-04-28T08:22:24;6.82;;;4.78;;
76107;SDS011;64834;52.516;10.528;2023-04-28T08:24:49;9.57;;;5.20;;
76107;SDS011;64834;52.516;10.528;2023-04-28T08:27:15;9.68;;;5.05;;
76107;SDS011;64834;52.516;10.528;2023-04-28T08:29:40;8.57;;;5.18;;
76107;SDS011;64834;52.516;10.528;2023-04-28T08:32:06;8.73;;;5.07;;
76107;SDS011;64834;52.516;10.528;2023-04-28T08:34:31;8.77;;;4.95;;
76107;SDS011;64834;52.516;10.528;2023-04-28T08:36:57;8.38;;;4.20;;
76107;SDS011;64834;52.516;10.528;2023-04-28T08:39:23;9.07;;;4.88;;
76107;SDS011;64834;52.516;10.528;2023-04-28T08:41:51;10.63;;;5.50;;
76107;SDS011;64834;52.516;10.528;2023-04-28T08:44:17;9.05;;;4.80;;
76107;SDS011;64834;52.516;10.528;2023-04-28T08:46:43;7.43;;;5.57;;
76107;SDS011;64834;52.516;10.528;2023-04-28T08:49:13;9.13;;;5.07;;
76107;SDS011;64834;52.516;10.528;2023-04-28T08:54:08;10.50;;;5.78;;
76107;SDS011;64834;52.516;10.528;2023-04-28T08:56:36;11.73;;;5.30;;
76107;SDS011;64834;52.516;10.528;2023-04-28T08:59:03;11.38;;;4.93;;
76107;SDS011;64834;52.516;10.528;2023-04-28T09:01:29;9.98;;;5.47;;
76107;SDS011;64834;52.516;10.528;2023-04-28T09:03:55;7.05;;;4.00;;
76107;SDS011;64834;52.516;10.528;2023-04-28T09:06:21;10.82;;;5.38;;
76107;SDS011;64834;52.516;10.528;2023-04-28T09:08:47;9.27;;;5.32;;
76107;SDS011;64834;52.516;10.528;2023-04-28T09:11:12;10.13;;;5.60;;
76107;SDS011;64834;52.516;10.528;2023-04-28T09:13:38;9.32;;;5.13;;
76107;SDS011;64834;52.516;10.528;2023-04-28T09:16:04;7.85;;;5.35;;
76107;SDS011;64834;52.516;10.528;2023-04-28T09:18:30;10.40;;;5.78;;
76107;SDS011;64834;52.516;10.528;2023-04-28T09:21:09;9.13;;;6.10;;
76107;SDS011;64834;52.516;10.528;2023-04-28T09:23:47;11.50;;;5.28;;
76107;SDS011;64834;52.516;10.528;2023-04-28T09:26:14;11.23;;;5.28;;
76107;SDS011;64834;52.516;10.528;2023-04-28T09:28:39;11.07;;;5.10;;
76107;SDS011;64834;52.516;10.528;2023-04-28T09:31:04;10.18;;;5.22;;
76107;SDS011;64834;52.516;10.528;2023-04-28T09:33:30;8.80;;;4.88;;
76107;SDS011;64834;52.516;10.528;2023-04-28T09:35:55;10.15;;;5.60;;
76107;SDS011;64834;52.516;10.528;2023-04-28T09:38:21;10.35;;;5.82;;
76107;SDS011;64834;52.516;10.528;2023-04-28T09:43:32;13.32;;;6.22;;
76107;SDS011;64834;52.516;10.528;2023-04-28T09:46:00;11.63;;;5.85;;
76107;SDS011;64834;52.516;10.528;2023-04-28T09:48:31;11.02;;;5.35;;
76107;SDS011;64834;52.516;10.528;2023-04-28T09:51:01;7.63;;;4.78;;
76107;SDS011;64834;52.516;10.528;2023-04-28T09:53:30;9.85;;;5.10;;
76107;SDS011;64834;52.516;10.528;2023-04-28T09:55:56;12.35;;;5.82;;
76107;SDS011;64834;52.516;10.528;2023-04-28T09:58:24;10.35;;;5.18;;
76107;SDS011;64834;52.516;10.528;2023-04-28T10:00:55;12.27;;;5.20;;
76107;SDS011;64834;52.516;10.528;2023-04-28T10:03:22;11.05;;;5.50;;
76107;SDS011;64834;52.516;10.528;2023-04-28T10:08:21;11.10;;;5.53;;
76107;SDS011;64834;52.516;10.528;2023-04-28T10:10:47;9.88;;;5.80;;
76107;SDS011;64834;52.516;10.528;2023-04-28T10:13:15;9.93;;;5.38;;
76107;SDS011;64834;52.516;10.528;2023-04-28T10:15:42;8.85;;;5.65;;
76107;SDS011;64834;52.516;10.528;2023-04-28T10:18:07;12.32;;;5.63;;
76107;SDS011;64834;52.516;10.528;2023-04-28T10:20:33;11.73;;;5.25;;
76107;SDS011;64834;52.516;10.528;2023-04-28T10:26:02;10.32;;;6.00;;
76107;SDS011;64834;52.516;10.528;2023-04-28T10:28:34;8.45;;;5.93;;
76107;SDS011;64834;52.516;10.528;2023-04-28T10:31:13;12.73;;;5.88;;
76107;SDS011;64834;52.516;10.528;2023-04-28T10:33:42;9.55;;;5.65;;
76107;SDS011;64834;52.516;10.528;2023-04-28T10:36:08;10.07;;;5.78;;
76107;SDS011;64834;52.516;10.528;2023-04-28T10:38:34;8.52;;;5.10;;
76107;SDS011;64834;52.516;10.528;2023-04-28T10:41:00;10.00;;;5.53;;
76107;SDS011;64834;52.516;10.528;2023-04-28T10:58:46;9.95;;;6.47;;
76107;SDS011;64834;52.516;10.528;2023-04-28T11:08:49;11.18;;;5.45;;
76107;SDS011;64834;52.516;10.528;2023-04-28T11:13:44;11.90;;;6.38;;
76107;SDS011;64834;52.516;10.528;2023-04-28T11:16:13;10.77;;;5.60;;
76107;SDS011;64834;52.516;10.528;2023-04-28T11:18:51;13.52;;;5.75;;
76107;SDS011;64834;52.516;10.528;2023-04-28T11:21:18;8.82;;;5.50;;
76107;SDS011;64834;52.516;10.528;2023-04-28T11:23:45;9.20;;;5.03;;
76107;SDS011;64834;52.516;10.528;2023-04-28T11:26:10;9.50;;;5.75;;
76107;SDS011;64834;52.516;10.528;2023-04-28T11:28:36;10.13;;;6.47;;
76107;SDS011;64834;52.516;10.528;2023-04-28T11:31:11;11.55;;;5.90;;
76107;SDS011;64834;52.516;10.528;2023-04-28T11:33:37;11.40;;;5.70;;
76107;SDS011;64834;52.516;10.528;2023-04-28T11:36:03;9.45;;;6.75;;
76107;SDS011;64834;52.516;10.528;2023-04-28T11:38:39;11.43;;;6.00;;
76107;SDS011;64834;52.516;10.528;2023-04-28T11:41:07;9.48;;;5.80;;
76107;SDS011;64834;52.516;10.528;2023-04-28T11:43:32;12.07;;;6.25;;
76107;SDS011;64834;52.516;10.528;2023-04-28T11:45:58;8.93;;;5.30;;
76107;SDS011;64834;52.516;10.528;2023-04-28T11:48:23;11.10;;;5.65;;
76107;SDS011;64834;52.516;10.528;2023-04-28T11:50:48;11.05;;;6.40;;
76107;SDS011;64834;52.516;10.528;2023-04-28T11:53:14;10.25;;;5.97;;
76107;SDS011;64834;52.516;10.528;2023-04-28T11:55:39;13.82;;;6.10;;
76107;SDS011;64834;52.516;10.528;2023-04-28T11:58:17;11.38;;;5.85;;
76107;SDS011;64834;52.516;10.528;2023-04-28T12:01:08;11.50;;;6.22;;
76107;SDS011;64834;52.516;10.528;2023-04-28T12:03:43;13.23;;;6.43;;
76107;SDS011;64834;52.516;10.528;2023-04-28T12:06:15;9.77;;;5.57;;
76107;SDS011;64834;52.516;10.528;2023-04-28T12:08:42;12.48;;;7.47;;
76107;SDS011;64834;52.516;10.528;2023-04-28T12:11:08;9.55;;;6.28;;
76107;SDS011;64834;52.516;10.528;2023-04-28T12:13:37;11.27;;;6.35;;
76107;SDS011;64834;52.516;10.528;2023-04-28T12:16:04;12.63;;;6.45;;
76107;SDS011;64834;52.516;10.528;2023-04-28T12:18:30;11.98;;;6.03;;
76107;SDS011;64834;52.516;10.528;2023-04-28T12:20:56;11.30;;;6.35;;
76107;SDS011;64834;52.516;10.528;2023-04-28T12:23:29;11.05;;;5.88;;
76107;SDS011;64834;52.516;10.528;2023-04-28T12:25:55;10.63;;;7.32;;
76107;SDS011;64834;52.516;10.528;2023-04-28T12:28:21;12.95;;;6.72;;
76107;SDS011;64834;52.516;10.528;2023-04-28T12:30:47;10.07;;;6.38;;
76107;SDS011;64834;52.516;10.528;2023-04-28T12:33:22;9.65;;;5.85;;
76107;SDS011;64834;52.516;10.528;2023-04-28T12:35:51;11.63;;;5.82;;
76107;SDS011;64834;52.516;10.528;2023-04-28T12:38:20;9.32;;;6.13;;
76107;SDS011;64834;52.516;10.528;2023-04-28T12:40:46;10.52;;;5.93;;
76107;SDS011;64834;52.516;10.528;2023-04-28T12:43:11;11.30;;;6.80;;
76107;SDS011;64834;52.516;10.528;2023-04-28T12:45:36;11.32;;;6.65;;
76107;SDS011;64834;52.516;10.528;2023-04-28T12:48:02;10.88;;;6.85;;
76107;SDS011;64834;52.516;10.528;2023-04-28T12:50:27;11.38;;;6.47;;
76107;SDS011;64834;52.516;10.528;2023-04-28T12:52:56;11.88;;;6.82;;
76107;SDS011;64834;52.516;10.528;2023-04-28T12:55:22;10.43;;;6.50;;
76107;SDS011;64834;52.516;10.528;2023-04-28T12:57:47;9.73;;;5.85;;
76107;SDS011;64834;52.516;10.528;2023-04-28T13:00:12;10.85;;;6.65;;
76107;SDS011;64834;52.516;10.528;2023-04-28T13:02:42;8.77;;;5.93;;
76107;SDS011;64834;52.516;10.528;2023-04-28T13:05:07;11.45;;;5.93;;
76107;SDS011;64834;52.516;10.528;2023-04-28T13:07:33;12.80;;;6.03;;
76107;SDS011;64834;52.516;10.528;2023-04-28T13:09:58;9.88;;;5.88;;
76107;SDS011;64834;52.516;10.528;2023-04-28T13:12:24;10.57;;;7.20;;
76107;SDS011;64834;52.516;10.528;2023-04-28T13:14:49;14.50;;;7.07;;
76107;SDS011;64834;52.516;10.528;2023-04-28T13:17:15;11.93;;;6.22;;
76107;SDS011;64834;52.516;10.528;2023-04-28T13:19:40;13.32;;;6.93;;
76107;SDS011;64834;52.516;10.528;2023-04-28T13:22:06;12.00;;;7.50;;
76107;SDS011;64834;52.516;10.528;2023-04-28T13:24:31;11.55;;;7.32;;
76107;SDS011;64834;52.516;10.528;2023-04-28T13:27:00;14.32;;;6.88;;
76107;SDS011;64834;52.516;10.528;2023-04-28T13:29:28;11.55;;;7.47;;
76107;SDS011;64834;52.516;10.528;2023-04-28T13:31:54;10.35;;;6.47;;
76107;SDS011;64834;52.516;10.528;2023-04-28T13:34:19;10.07;;;6.85;;
76107;SDS011;64834;52.516;10.528;2023-04-28T13:36:45;15.85;;;6.75;;
76107;SDS011;64834;52.516;10.528;2023-04-28T13:39:12;12.75;;;7.38;;
76107;SDS011;64834;52.516;10.528;2023-04-28T13:41:40;13.05;;;6.90;;
76107;SDS011;64834;52.516;10.528;2023-04-28T13:44:05;13.15;;;7.25;;
76107;SDS011;64834;52.516;10.528;2023-04-28T13:46:31;12.57;;;6.82;;
76107;SDS011;64834;52.516;10.528;2023-04-28T13:48:56;12.43;;;7.22;;
76107;SDS011;64834;52.516;10.528;2023-04-28T13:51:22;12.73;;;6.25;;
76107;SDS011;64834;52.516;10.528;2023-04-28T13:53:47;10.35;;;6.55;;
76107;SDS011;64834;52.516;10.528;2023-04-28T13:56:13;9.25;;;6.70;;
76107;SDS011;64834;52.516;10.528;2023-04-28T13:58:38;10.45;;;6.00;;
76107;SDS011;64834;52.516;10.528;2023-04-28T14:01:03;10.80;;;6.68;;
76107;SDS011;64834;52.516;10.528;2023-04-28T14:03:29;9.95;;;6.25;;
76107;SDS011;64834;52.516;10.528;2023-04-28T14:05:55;9.50;;;6.45;;
76107;SDS011;64834;52.516;10.528;2023-04-28T14:08:21;12.43;;;6.53;;
76107;SDS011;64834;52.516;10.528;2023-04-28T14:10:48;12.32;;;6.70;;
76107;SDS011;64834;52.516;10.528;2023-04-28T14:13:14;11.25;;;6.93;;
76107;SDS011;64834;52.516;10.528;2023-04-28T14:15:40;9.43;;;6.57;;
76107;SDS011;64834;52.516;10.528;2023-04-28T14:18:05;11.13;;;7.07;;
76107;SDS011;64834;52.516;10.528;2023-04-28T14:20:31;11.95;;;6.55;;
76107;SDS011;64834;52.516;10.528;2023-04-28T14:22:57;11.75;;;6.80;;
76107;SDS011;64834;52.516;10.528;2023-04-28T14:25:22;11.52;;;6.57;;
76107;SDS011;64834;52.516;10.528;2023-04-28T14:27:48;10.30;;;6.68;;
76107;SDS011;64834;52.516;10.528;2023-04-28T14:30:14;11.02;;;6.60;;
76107;SDS011;64834;52.516;10.528;2023-04-28T14:32:40;12.43;;;6.60;;
76107;SDS011;64834;52.516;10.528;2023-04-28T14:35:06;12.50;;;6.82;;
76107;SDS011;64834;52.516;10.528;2023-04-28T14:37:31;14.00;;;7.22;;
76107;SDS011;64834;52.516;10.528;2023-04-28T14:39:57;8.65;;;6.07;;
76107;SDS011;64834;52.516;10.528;2023-04-28T14:42:27;12.57;;;7.32;;
76107;SDS011;64834;52.516;10.528;2023-04-28T14:44:53;11.60;;;7.35;;
76107;SDS011;64834;52.516;10.528;2023-04-28T14:47:19;11.45;;;7.03;;
76107;SDS011;64834;52.516;10.528;2023-04-28T14:49:45;11.48;;;6.32;;
76107;SDS011;64834;52.516;10.528;2023-04-28T14:52:11;12.90;;;7.07;;
76107;SDS011;64834;52.516;10.528;2023-04-28T14:54:37;11.85;;;7.20;;
76107;SDS011;64834;52.516;10.528;2023-04-28T14:57:03;13.65;;;6.95;;
76107;SDS011;64834;52.516;10.528;2023-04-28T14:59:28;11.63;;;6.72;;
76107;SDS011;64834;52.516;10.528;2023-04-28T15:01:54;11.95;;;6.97;;
76107;SDS011;64834;52.516;10.528;2023-04-28T15:04:20;11.25;;;6.88;;